createdAt,value
2023-03-29T00:00:52.585Z,14.80
2023-03-29T00:03:19.360Z,13.90
2023-03-29T00:05:46.366Z,13.80
2023-03-29T00:08:14.852Z,13.95
2023-03-29T00:10:42.374Z,14.85
2023-03-29T00:13:09.042Z,15.50
2023-03-29T00:15:35.688Z,13.57
2023-03-29T00:18:02.342Z,15.60
2023-03-29T00:20:29.056Z,13.77
2023-03-29T00:22:55.710Z,17.67
2023-03-29T00:25:22.342Z,16.02
2023-03-29T00:27:49.170Z,16.42
2023-03-29T00:30:16.284Z,16.13
2023-03-29T00:32:43.262Z,16.05
2023-03-29T00:35:10.912Z,15.00
2023-03-29T00:37:38.019Z,16.25
2023-03-29T00:40:09.567Z,14.95
2023-03-29T00:42:36.637Z,13.80
2023-03-29T00:45:12.103Z,19.17
2023-03-29T00:47:48.664Z,16.48
2023-03-29T00:50:45.422Z,14.30
2023-03-29T00:53:26.262Z,15.52
2023-03-29T00:56:26.246Z,14.03
2023-03-29T00:59:19.084Z,13.52
2023-03-29T01:01:56.896Z,13.82
2023-03-29T01:04:36.183Z,12.13
2023-03-29T01:07:05.483Z,13.85
2023-03-29T01:09:35.426Z,12.73
2023-03-29T01:12:08.597Z,16.85
2023-03-29T01:14:41.767Z,13.00
2023-03-29T01:17:08.826Z,13.43
2023-03-29T01:19:42.177Z,15.20
2023-03-29T01:22:28.318Z,12.87
2023-03-29T01:25:03.483Z,13.77
2023-03-29T01:27:53.868Z,13.48
2023-03-29T01:30:33.523Z,13.50
2023-03-29T01:33:09.919Z,13.10
2023-03-29T01:35:48.353Z,13.70
2023-03-29T01:38:24.403Z,15.73
2023-03-29T01:40:51.548Z,12.88
2023-03-29T01:43:44.704Z,17.33
2023-03-29T01:46:21.405Z,13.68
2023-03-29T01:49:01.576Z,14.67
2023-03-29T01:51:38.461Z,13.10
2023-03-29T01:54:11.917Z,15.05
2023-03-29T01:56:43.347Z,13.68
2023-03-29T01:59:14.624Z,14.15
2023-03-29T02:01:49.284Z,11.50
2023-03-29T02:04:22.690Z,11.10
2023-03-29T02:06:54.070Z,13.10
2023-03-29T02:09:21.221Z,12.20
2023-03-29T02:11:49.488Z,11.85
2023-03-29T02:14:16.902Z,14.87
2023-03-29T02:16:46.332Z,16.35
2023-03-29T02:19:13.523Z,14.43
2023-03-29T02:22:03.451Z,12.50
2023-03-29T02:24:33.577Z,15.80
2023-03-29T02:27:01.161Z,11.45
2023-03-29T02:29:27.796Z,12.45
2023-03-29T02:32:10.169Z,13.50
2023-03-29T02:34:51.982Z,14.73
2023-03-29T02:37:20.464Z,12.27
2023-03-29T02:39:49.674Z,14.87
2023-03-29T02:42:20.193Z,13.45
2023-03-29T02:44:49.482Z,14.88
2023-03-29T02:47:21.272Z,12.23
2023-03-29T02:49:47.897Z,11.43
2023-03-29T02:52:19.817Z,14.00
2023-03-29T02:54:50.277Z,13.20
2023-03-29T02:57:17.447Z,13.30
2023-03-29T02:59:44.934Z,13.85
2023-03-29T03:02:11.838Z,11.82
2023-03-29T03:04:38.457Z,16.00
2023-03-29T03:07:05.300Z,10.60
2023-03-29T03:09:31.865Z,12.75
2023-03-29T03:11:58.457Z,12.95
2023-03-29T03:14:25.008Z,11.52
2023-03-29T03:16:52.787Z,15.90
2023-03-29T03:19:19.823Z,10.32
2023-03-29T03:21:47.042Z,14.38
2023-03-29T03:24:13.619Z,13.18
2023-03-29T03:26:40.300Z,16.85
2023-03-29T03:29:06.924Z,14.70
2023-03-29T03:31:33.602Z,12.32
2023-03-29T03:34:00.837Z,13.20
2023-03-29T03:36:29.116Z,12.82
2023-03-29T03:38:55.709Z,13.35
2023-03-29T03:41:22.777Z,15.20
2023-03-29T03:43:49.586Z,11.57
2023-03-29T03:46:17.142Z,12.98
2023-03-29T03:48:45.115Z,9.27
2023-03-29T03:51:11.789Z,9.75
2023-03-29T03:53:38.462Z,11.43
2023-03-29T03:56:08.886Z,14.77
2023-03-29T03:58:36.581Z,10.88
2023-03-29T04:01:04.135Z,11.20
2023-03-29T04:03:31.660Z,9.45
2023-03-29T04:06:02.374Z,12.03
2023-03-29T04:08:29.090Z,12.25
2023-03-29T04:10:57.488Z,10.68
2023-03-29T04:13:25.712Z,11.32
2023-03-29T04:15:55.672Z,12.07
2023-03-29T04:18:24.049Z,10.57
2023-03-29T04:20:50.943Z,11.40
2023-03-29T04:23:17.831Z,13.50
2023-03-29T04:25:44.862Z,13.05
2023-03-29T04:28:12.689Z,12.35
2023-03-29T04:30:39.428Z,11.47
2023-03-29T04:33:06.373Z,16.17
2023-03-29T04:35:33.292Z,14.90
2023-03-29T04:38:00.237Z,13.52
2023-03-29T04:40:26.746Z,13.68
2023-03-29T04:42:54.319Z,14.23
2023-03-29T04:45:21.138Z,12.95
2023-03-29T04:47:47.842Z,13.88
2023-03-29T04:50:14.510Z,13.57
2023-03-29T04:52:41.332Z,11.55
2023-03-29T04:55:08.385Z,15.00
2023-03-29T04:57:34.950Z,12.60
2023-03-29T05:00:01.803Z,16.23
2023-03-29T05:02:32.151Z,13.98
2023-03-29T05:04:58.774Z,15.13
2023-03-29T05:07:25.337Z,15.57
2023-03-29T05:09:51.975Z,12.48
2023-03-29T05:12:18.622Z,13.10
2023-03-29T05:14:45.619Z,16.05
2023-03-29T05:17:12.179Z,17.25
2023-03-29T05:19:38.670Z,15.50
2023-03-29T05:22:05.299Z,16.23
2023-03-29T05:24:31.976Z,14.35
2023-03-29T05:26:58.484Z,15.02
2023-03-29T05:29:25.221Z,16.20
2023-03-29T05:34:18.894Z,15.13
2023-03-29T05:36:45.718Z,14.90
2023-03-29T05:39:12.322Z,13.55
2023-03-29T05:41:38.960Z,15.65
2023-03-29T05:44:06.483Z,13.23
2023-03-29T05:46:33.062Z,12.07
2023-03-29T05:48:59.729Z,13.50
2023-03-29T05:51:26.500Z,14.10
2023-03-29T05:53:54.044Z,12.98
2023-03-29T05:56:22.382Z,14.63
2023-03-29T05:58:50.984Z,12.93
2023-03-29T06:01:18.884Z,15.05
2023-03-29T06:03:48.160Z,16.05
2023-03-29T06:06:16.370Z,13.23
2023-03-29T06:08:44.072Z,15.57
2023-03-29T06:11:13.226Z,13.75
2023-03-29T06:13:41.388Z,13.98
2023-03-29T06:16:09.908Z,13.80
2023-03-29T06:18:41.081Z,17.67
2023-03-29T06:21:09.086Z,15.00
2023-03-29T06:23:36.377Z,15.27
2023-03-29T06:26:03.271Z,13.88
2023-03-29T06:28:29.860Z,10.55
2023-03-29T06:30:56.854Z,12.45
2023-03-29T06:33:25.144Z,12.05
2023-03-29T06:35:51.814Z,16.02
2023-03-29T06:38:19.445Z,13.98
2023-03-29T06:40:47.232Z,12.68
2023-03-29T06:43:14.166Z,10.40
2023-03-29T06:45:40.835Z,12.10
2023-03-29T06:48:08.155Z,15.35
2023-03-29T06:50:35.573Z,13.25
2023-03-29T06:53:02.583Z,13.30
2023-03-29T06:55:29.256Z,12.68
2023-03-29T06:57:55.785Z,14.40
2023-03-29T07:00:29.721Z,11.40
2023-03-29T07:02:58.900Z,14.77
2023-03-29T07:05:29.202Z,9.98
2023-03-29T07:08:13.700Z,11.80
2023-03-29T07:10:43.341Z,13.90
2023-03-29T07:13:15.507Z,10.23
2023-03-29T07:15:43.694Z,10.57
2023-03-29T07:18:12.387Z,10.82
2023-03-29T07:20:39.043Z,11.07
2023-03-29T07:23:06.874Z,13.23
2023-03-29T07:25:33.929Z,10.05
2023-03-29T07:28:00.471Z,9.88
2023-03-29T07:30:31.655Z,12.35
2023-03-29T07:32:59.458Z,9.18
2023-03-29T07:35:26.701Z,10.13
2023-03-29T07:37:55.433Z,9.80
2023-03-29T07:40:26.138Z,11.02
2023-03-29T07:42:55.130Z,9.50
2023-03-29T07:45:26.840Z,10.38
2023-03-29T07:47:59.495Z,9.57
2023-03-29T07:50:27.696Z,9.20
2023-03-29T07:52:54.662Z,12.02
2023-03-29T07:55:22.028Z,7.32
2023-03-29T07:57:49.385Z,10.90
2023-03-29T08:00:17.216Z,7.88
2023-03-29T08:02:49.682Z,7.72
2023-03-29T08:05:26.067Z,9.52
2023-03-29T08:08:00.846Z,8.52
2023-03-29T08:10:28.410Z,9.45
2023-03-29T08:12:55.209Z,9.48
2023-03-29T08:15:21.814Z,10.30
2023-03-29T08:17:48.544Z,10.50
2023-03-29T08:20:19.219Z,10.45
2023-03-29T08:22:45.869Z,10.77
2023-03-29T08:25:12.846Z,9.60
2023-03-29T08:27:39.590Z,10.13
2023-03-29T08:30:09.345Z,9.20
2023-03-29T08:32:36.936Z,8.65
2023-03-29T08:35:04.872Z,9.02
2023-03-29T08:37:32.545Z,7.30
2023-03-29T08:40:00.836Z,8.82
2023-03-29T08:42:33.113Z,8.15
2023-03-29T08:45:21.846Z,7.45
2023-03-29T08:48:08.728Z,7.05
2023-03-29T08:50:38.357Z,7.32
2023-03-29T08:53:12.441Z,8.13
2023-03-29T08:55:42.846Z,8.85
2023-03-29T08:58:20.139Z,8.88
2023-03-29T09:00:59.101Z,9.02
2023-03-29T09:03:31.417Z,7.30
2023-03-29T09:06:03.710Z,8.77
2023-03-29T09:08:30.969Z,8.43
2023-03-29T09:11:18.985Z,7.90
2023-03-29T09:14:09.960Z,9.27
2023-03-29T09:16:54.858Z,8.48
2023-03-29T09:19:43.421Z,7.50
2023-03-29T09:22:30.218Z,9.15
2023-03-29T09:25:13.949Z,8.27
2023-03-29T09:27:46.715Z,9.75
2023-03-29T09:30:30.671Z,14.93
2023-03-29T09:33:03.354Z,10.95
2023-03-29T09:35:37.376Z,10.07
2023-03-29T09:38:09.440Z,7.63
2023-03-29T09:40:47.902Z,9.10
2023-03-29T09:43:18.480Z,8.88
2023-03-29T09:45:51.093Z,8.07
2023-03-29T09:48:19.658Z,8.38
2023-03-29T09:50:48.231Z,8.35
2023-03-29T09:53:16.123Z,8.00
2023-03-29T09:55:44.578Z,8.48
2023-03-29T09:58:22.686Z,8.55
2023-03-29T10:00:49.951Z,8.77
2023-03-29T10:03:21.096Z,7.90
2023-03-29T10:05:49.944Z,8.20
2023-03-29T10:08:22.299Z,7.68
2023-03-29T10:10:49.174Z,7.18
2023-03-29T10:13:22.957Z,6.55
2023-03-29T10:16:07.850Z,7.53
2023-03-29T10:18:40.695Z,7.10
2023-03-29T10:21:10.319Z,6.82
2023-03-29T10:23:38.021Z,6.93
2023-03-29T10:26:11.568Z,6.82
2023-03-29T10:28:38.540Z,6.68
2023-03-29T10:31:07.984Z,6.57
2023-03-29T10:33:36.113Z,6.57
2023-03-29T10:36:07.534Z,7.18
2023-03-29T10:38:36.300Z,7.65
2023-03-29T10:41:06.717Z,6.53
2023-03-29T10:43:44.496Z,7.95
2023-03-29T10:46:19.476Z,10.70
2023-03-29T10:48:49.640Z,8.63
2023-03-29T10:51:18.192Z,8.90
2023-03-29T10:53:44.906Z,6.65
2023-03-29T10:56:29.460Z,6.82
2023-03-29T10:59:21.540Z,7.30
2023-03-29T11:02:16.965Z,7.00
2023-03-29T11:05:05.839Z,8.45
2023-03-29T11:07:36.491Z,7.75
2023-03-29T11:10:21.667Z,6.88
2023-03-29T11:13:12.650Z,7.50
2023-03-29T11:15:52.502Z,8.35
2023-03-29T11:18:22.265Z,7.50
2023-03-29T11:20:52.829Z,10.80
2023-03-29T11:23:22.346Z,9.40
2023-03-29T11:26:20.475Z,7.55
2023-03-29T11:28:57.645Z,8.45
2023-03-29T11:31:53.650Z,6.85
2023-03-29T11:34:35.412Z,6.85
2023-03-29T11:37:19.322Z,6.43
2023-03-29T11:40:26.728Z,6.57
2023-03-29T11:42:56.803Z,7.88
2023-03-29T11:45:52.614Z,5.43
2023-03-29T11:48:28.939Z,6.75
2023-03-29T11:51:07.735Z,7.57
2023-03-29T11:53:51.187Z,7.40
2023-03-29T11:56:29.126Z,7.07
2023-03-29T11:59:02.456Z,6.40
2023-03-29T12:01:37.526Z,6.30
2023-03-29T12:04:10.911Z,7.82
2023-03-29T12:07:11.181Z,6.88
2023-03-29T12:09:49.961Z,7.60
2023-03-29T12:12:38.194Z,8.93
2023-03-29T12:15:15.403Z,6.28
2023-03-29T12:17:47.116Z,7.68
2023-03-29T12:20:26.692Z,6.63
2023-03-29T12:22:54.215Z,10.90
2023-03-29T12:25:26.757Z,5.75
2023-03-29T12:28:25.492Z,7.63
2023-03-29T12:31:07.158Z,7.90
2023-03-29T12:34:07.594Z,8.23
2023-03-29T12:36:46.290Z,7.03
2023-03-29T12:39:18.729Z,7.22
2023-03-29T12:41:49.177Z,7.70
2023-03-29T12:44:20.409Z,8.23
2023-03-29T12:46:50.994Z,7.10
2023-03-29T12:49:38.865Z,7.93
2023-03-29T12:52:23.245Z,8.43
2023-03-29T12:54:55.376Z,8.52
2023-03-29T12:57:29.078Z,9.57
2023-03-29T12:59:56.340Z,7.15
2023-03-29T13:02:22.894Z,8.98
2023-03-29T13:04:57.918Z,7.35
2023-03-29T13:07:26.362Z,8.00
2023-03-29T13:10:20.718Z,8.43
2023-03-29T13:12:50.211Z,8.00
2023-03-29T13:15:16.845Z,8.35
2023-03-29T13:18:06.123Z,8.60
2023-03-29T13:20:37.245Z,8.25
2023-03-29T13:23:18.958Z,7.50
2023-03-29T13:26:19.632Z,9.55
2023-03-29T13:29:25.300Z,11.23
2023-03-29T13:32:14.625Z,7.35
2023-03-29T13:34:53.801Z,7.40
2023-03-29T13:37:34.577Z,7.53
2023-03-29T13:40:01.709Z,8.23
2023-03-29T13:42:37.017Z,8.68
2023-03-29T13:45:16.702Z,8.35
2023-03-29T13:47:54.920Z,8.40
2023-03-29T13:50:40.654Z,6.75
2023-03-29T13:53:24.856Z,6.90
2023-03-29T13:55:54.024Z,5.95
2023-03-29T13:58:27.641Z,8.07
2023-03-29T14:01:38.097Z,6.30
2023-03-29T14:04:08.248Z,6.80
2023-03-29T14:06:37.131Z,8.48
2023-03-29T14:09:07.194Z,7.95
2023-03-29T14:11:34.061Z,7.40
2023-03-29T14:14:04.993Z,7.80
2023-03-29T14:16:35.218Z,7.45
2023-03-29T14:19:13.353Z,6.82
2023-03-29T14:21:41.454Z,9.07
2023-03-29T14:24:15.022Z,7.47
2023-03-29T14:26:46.709Z,9.63
2023-03-29T14:29:13.983Z,6.22
2023-03-29T14:31:42.055Z,6.13
2023-03-29T14:34:18.543Z,6.55
2023-03-29T14:36:48.622Z,8.07
2023-03-29T14:39:18.305Z,7.43
2023-03-29T14:41:56.824Z,8.18
2023-03-29T14:44:34.680Z,9.90
2023-03-29T14:47:02.873Z,6.50
2023-03-29T14:49:29.976Z,7.32
2023-03-29T14:51:57.152Z,8.88
2023-03-29T14:54:29.654Z,10.23
2023-03-29T14:56:56.346Z,8.15
2023-03-29T14:59:40.840Z,12.20
2023-03-29T15:02:26.139Z,11.82
2023-03-29T15:04:58.872Z,10.20
2023-03-29T15:07:28.095Z,8.20
2023-03-29T15:09:56.262Z,8.85
2023-03-29T15:12:23.439Z,9.95
2023-03-29T15:14:53.284Z,8.27
2023-03-29T15:17:47.736Z,7.43
2023-03-29T15:20:25.729Z,9.90
2023-03-29T15:23:20.593Z,9.73
2023-03-29T15:25:52.276Z,8.60
2023-03-29T15:28:26.389Z,17.92
2023-03-29T15:31:07.209Z,13.88
2023-03-29T15:33:36.009Z,13.20
2023-03-29T15:36:04.939Z,11.60
2023-03-29T15:38:42.545Z,11.50
2023-03-29T15:41:11.512Z,12.60
2023-03-29T15:43:38.023Z,11.48
2023-03-29T15:46:05.181Z,12.95
2023-03-29T15:48:33.552Z,8.68
2023-03-29T15:51:03.741Z,10.40
2023-03-29T15:53:32.226Z,10.60
2023-03-29T15:56:03.935Z,8.65
2023-03-29T15:58:32.639Z,9.70
2023-03-29T16:01:35.475Z,13.45
2023-03-29T16:04:04.170Z,9.85
2023-03-29T16:06:31.892Z,9.52
2023-03-29T16:08:58.357Z,8.00
2023-03-29T16:11:24.979Z,11.88
2023-03-29T16:13:51.589Z,11.75
2023-03-29T16:16:18.241Z,8.13
2023-03-29T16:18:44.845Z,9.38
2023-03-29T16:21:14.346Z,10.40
2023-03-29T16:23:42.905Z,10.30
2023-03-29T16:26:12.787Z,11.95
2023-03-29T16:28:39.944Z,9.77
2023-03-29T16:31:06.929Z,10.35
2023-03-29T16:33:33.616Z,10.60
2023-03-29T16:36:00.577Z,10.80
2023-03-29T16:38:29.189Z,12.52
2023-03-29T16:40:55.967Z,13.48
2023-03-29T16:43:22.556Z,9.50
2023-03-29T16:45:49.218Z,12.98
2023-03-29T16:48:17.508Z,11.35
2023-03-29T16:50:48.598Z,11.18
2023-03-29T16:53:19.877Z,11.13
2023-03-29T16:55:47.451Z,11.70
2023-03-29T16:58:15.205Z,10.93
2023-03-29T17:00:41.945Z,11.55
2023-03-29T17:03:08.894Z,13.43
2023-03-29T17:05:41.135Z,9.60
2023-03-29T17:08:10.012Z,16.50
2023-03-29T17:10:40.698Z,21.88
2023-03-29T17:13:08.083Z,20.25
2023-03-29T17:15:37.361Z,18.50
2023-03-29T17:18:05.887Z,12.57
2023-03-29T17:20:32.454Z,17.10
2023-03-29T17:23:08.755Z,14.13
2023-03-29T17:25:35.706Z,12.55
2023-03-29T17:28:02.855Z,14.05
2023-03-29T17:30:29.484Z,15.75
2023-03-29T17:32:56.102Z,15.10
2023-03-29T17:35:22.701Z,14.23
2023-03-29T17:37:49.483Z,13.27
2023-03-29T17:40:17.153Z,14.27
2023-03-29T17:42:48.677Z,16.17
2023-03-29T17:45:15.812Z,13.68
2023-03-29T17:47:42.420Z,14.13
2023-03-29T17:50:11.395Z,12.35
2023-03-29T17:52:39.577Z,15.30
2023-03-29T17:55:16.293Z,12.63
2023-03-29T17:57:43.736Z,14.02
2023-03-29T18:00:13.439Z,14.23
2023-03-29T18:02:41.936Z,14.65
2023-03-29T18:05:10.080Z,15.65
2023-03-29T18:07:37.343Z,16.42
2023-03-29T18:10:04.548Z,17.55
2023-03-29T18:12:31.475Z,14.30
2023-03-29T18:14:58.346Z,17.42
2023-03-29T18:17:27.196Z,14.48
2023-03-29T18:19:54.059Z,12.43
2023-03-29T18:22:21.605Z,14.05
2023-03-29T18:24:49.192Z,11.75
2023-03-29T18:27:15.967Z,10.95
2023-03-29T18:29:43.931Z,13.85
2023-03-29T18:32:11.067Z,13.45
2023-03-29T18:34:39.074Z,11.48
2023-03-29T18:37:06.010Z,14.95
2023-03-29T18:39:34.482Z,12.70
2023-03-29T18:42:01.604Z,14.18
2023-03-29T18:44:28.828Z,12.45
2023-03-29T18:46:56.232Z,13.65
2023-03-29T18:49:22.990Z,14.45
2023-03-29T18:51:49.920Z,14.07
2023-03-29T18:54:17.073Z,12.38
2023-03-29T18:56:43.631Z,14.02
2023-03-29T18:59:10.173Z,14.00
2023-03-29T19:01:36.764Z,13.13
2023-03-29T19:04:03.478Z,12.68
2023-03-29T19:06:30.424Z,13.27
2023-03-29T19:08:59.472Z,13.63
2023-03-29T19:11:27.701Z,16.58
2023-03-29T19:13:55.823Z,15.50
2023-03-29T19:16:22.564Z,15.65
2023-03-29T19:18:49.357Z,14.70
2023-03-29T19:21:15.944Z,13.52
2023-03-29T19:23:42.629Z,12.48
2023-03-29T19:26:11.493Z,14.40
2023-03-29T19:28:37.991Z,15.43
2023-03-29T19:31:04.564Z,13.23
2023-03-29T19:33:31.502Z,15.13
2023-03-29T19:35:58.072Z,12.43
2023-03-29T19:38:24.800Z,13.82
2023-03-29T19:40:51.735Z,13.93
2023-03-29T19:43:18.776Z,13.18
2023-03-29T19:45:47.178Z,11.27
2023-03-29T19:48:21.921Z,12.18
2023-03-29T19:50:50.111Z,14.23
2023-03-29T19:53:16.722Z,16.00
2023-03-29T19:55:44.917Z,13.85
2023-03-29T19:58:11.946Z,12.52
2023-03-29T20:00:38.899Z,14.88
2023-03-29T20:03:09.521Z,13.15
2023-03-29T20:05:38.316Z,12.77
2023-03-29T20:08:05.084Z,11.65
2023-03-29T20:10:32.193Z,12.38
2023-03-29T20:12:58.939Z,11.65
2023-03-29T20:15:25.932Z,13.50
2023-03-29T20:17:54.165Z,13.98
2023-03-29T20:20:23.956Z,13.55
2023-03-29T20:23:04.406Z,11.90
2023-03-29T20:25:32.538Z,14.40
2023-03-29T20:27:59.616Z,15.93
2023-03-29T20:30:26.309Z,13.95
2023-03-29T20:32:53.004Z,14.20
2023-03-29T20:35:19.767Z,16.20
2023-03-29T20:37:46.256Z,15.90
2023-03-29T20:40:13.761Z,14.30
2023-03-29T20:42:41.099Z,16.20
2023-03-29T20:45:08.782Z,14.93
2023-03-29T20:47:42.217Z,15.70
2023-03-29T20:50:10.413Z,15.73
2023-03-29T20:52:36.937Z,14.82
2023-03-29T20:55:04.145Z,14.38
2023-03-29T20:57:30.688Z,14.57
2023-03-29T20:59:57.722Z,14.65
2023-03-29T21:02:24.312Z,13.93
2023-03-29T21:04:52.453Z,14.45
2023-03-29T21:07:20.300Z,16.83
2023-03-29T21:09:49.672Z,15.18
2023-03-29T21:12:16.718Z,14.10
2023-03-29T21:14:43.529Z,15.18
2023-03-29T21:17:10.291Z,14.88
2023-03-29T21:19:38.212Z,18.08
2023-03-29T21:22:05.025Z,17.55
2023-03-29T21:24:32.995Z,17.67
2023-03-29T21:26:59.915Z,17.25
2023-03-29T21:29:26.542Z,16.27
2023-03-29T21:31:53.191Z,17.55
2023-03-29T21:34:19.837Z,21.60
2023-03-29T21:36:46.530Z,16.98
2023-03-29T21:39:13.122Z,17.42
2023-03-29T21:41:39.659Z,18.23
2023-03-29T21:44:06.354Z,17.17
2023-03-29T21:46:33.075Z,18.20
2023-03-29T21:48:59.629Z,18.23
2023-03-29T21:51:26.987Z,17.88
2023-03-29T21:53:53.556Z,16.70
2023-03-29T21:56:20.083Z,15.57
2023-03-29T21:58:46.602Z,17.20
2023-03-29T22:01:13.155Z,17.65
2023-03-29T22:03:39.720Z,19.33
2023-03-29T22:06:09.344Z,17.17
2023-03-29T22:08:41.404Z,17.30
2023-03-29T22:11:14.081Z,18.90
2023-03-29T22:13:41.228Z,19.35
2023-03-29T22:16:08.625Z,16.75
2023-03-29T22:18:43.229Z,16.73
2023-03-29T22:21:15.275Z,17.17
2023-03-29T22:23:43.709Z,19.65
2023-03-29T22:26:12.323Z,17.90
2023-03-29T22:28:39.608Z,18.58
2023-03-29T22:31:12.413Z,19.08
2023-03-29T22:33:39.793Z,18.08
2023-03-29T22:36:21.712Z,16.95
2023-03-29T22:38:50.490Z,16.88
2023-03-29T22:41:18.778Z,16.85
2023-03-29T22:43:45.403Z,15.45
2023-03-29T22:46:13.537Z,14.63
2023-03-29T22:48:40.644Z,17.08
2023-03-29T22:51:07.451Z,18.83
2023-03-29T22:53:34.397Z,15.98
2023-03-29T22:56:01.309Z,17.08
2023-03-29T22:58:29.315Z,16.98
2023-03-29T23:00:57.128Z,15.88
2023-03-29T23:03:23.905Z,16.98
2023-03-29T23:05:52.287Z,17.13
2023-03-29T23:08:18.844Z,17.90
2023-03-29T23:10:46.977Z,16.73
2023-03-29T23:13:19.839Z,15.07
2023-03-29T23:15:48.466Z,16.70
2023-03-29T23:18:18.476Z,16.48
2023-03-29T23:20:47.113Z,16.92
2023-03-29T23:23:15.323Z,17.23
2023-03-29T23:25:47.401Z,16.67
2023-03-29T23:28:16.625Z,16.83
2023-03-29T23:30:43.490Z,16.02
2023-03-29T23:33:10.434Z,16.08
2023-03-29T23:35:37.510Z,17.92
2023-03-29T23:38:05.447Z,15.85
2023-03-29T23:40:33.087Z,14.85
2023-03-29T23:42:59.743Z,16.73
2023-03-29T23:45:30.057Z,16.85
2023-03-29T23:47:57.034Z,16.45
2023-03-29T23:50:23.920Z,15.15
2023-03-29T23:52:51.452Z,16.05
2023-03-29T23:55:18.878Z,17.17
2023-03-29T23:57:45.601Z,16.70
